sensor_id;sensor_type;location;lat;lon;timestamp;P1;durP1;ratioP1;P2;durP2;ratioP2
67819;SDS011;54618;52.018;5.576;2023-02-10T00:01:07;5.50;;;3.60;;
67819;SDS011;54618;52.018;5.576;2023-02-10T00:03:34;5.65;;;3.67;;
67819;SDS011;54618;52.018;5.576;2023-02-10T00:06:01;5.80;;;3.78;;
67819;SDS011;54618;52.018;5.576;2023-02-10T00:08:27;6.18;;;3.72;;
67819;SDS011;54618;52.018;5.576;2023-02-10T00:10:57;6.28;;;3.72;;
67819;SDS011;54618;52.018;5.576;2023-02-10T00:13:27;7.18;;;3.97;;
67819;SDS011;54618;52.018;5.576;2023-02-10T00:15:53;7.30;;;3.55;;
67819;SDS011;54618;52.018;5.576;2023-02-10T00:18:19;5.70;;;3.80;;
67819;SDS011;54618;52.018;5.576;2023-02-10T00:20:45;6.75;;;3.75;;
67819;SDS011;54618;52.018;5.576;2023-02-10T00:23:10;5.95;;;3.88;;
67819;SDS011;54618;52.018;5.576;2023-02-10T00:25:36;5.80;;;3.55;;
67819;SDS011;54618;52.018;5.576;2023-02-10T00:28:03;6.03;;;3.42;;
67819;SDS011;54618;52.018;5.576;2023-02-10T00:30:30;6.53;;;3.63;;
67819;SDS011;54618;52.018;5.576;2023-02-10T00:32:56;4.82;;;3.20;;
67819;SDS011;54618;52.018;5.576;2023-02-10T00:35:22;6.32;;;3.22;;
67819;SDS011;54618;52.018;5.576;2023-02-10T00:37:48;5.45;;;3.42;;
67819;SDS011;54618;52.018;5.576;2023-02-10T00:40:14;6.88;;;3.40;;
67819;SDS011;54618;52.018;5.576;2023-02-10T00:42:40;6.25;;;3.63;;
67819;SDS011;54618;52.018;5.576;2023-02-10T00:45:06;5.47;;;3.25;;
67819;SDS011;54618;52.018;5.576;2023-02-10T00:47:32;6.45;;;3.30;;
67819;SDS011;54618;52.018;5.576;2023-02-10T00:49:57;5.95;;;3.20;;
67819;SDS011;54618;52.018;5.576;2023-02-10T00:52:23;5.55;;;3.35;;
67819;SDS011;54618;52.018;5.576;2023-02-10T00:54:49;5.97;;;3.50;;
67819;SDS011;54618;52.018;5.576;2023-02-10T00:57:14;6.93;;;3.30;;
67819;SDS011;54618;52.018;5.576;2023-02-10T00:59:40;6.45;;;3.47;;
67819;SDS011;54618;52.018;5.576;2023-02-10T01:02:06;7.72;;;3.45;;
67819;SDS011;54618;52.018;5.576;2023-02-10T01:04:31;6.25;;;3.60;;
67819;SDS011;54618;52.018;5.576;2023-02-10T01:06:57;6.45;;;3.30;;
67819;SDS011;54618;52.018;5.576;2023-02-10T01:09:23;7.50;;;3.40;;
67819;SDS011;54618;52.018;5.576;2023-02-10T01:11:48;5.70;;;3.17;;
67819;SDS011;54618;52.018;5.576;2023-02-10T01:14:14;4.88;;;3.22;;
67819;SDS011;54618;52.018;5.576;2023-02-10T01:16:40;5.30;;;3.50;;
67819;SDS011;54618;52.018;5.576;2023-02-10T01:19:05;6.20;;;3.40;;
67819;SDS011;54618;52.018;5.576;2023-02-10T01:21:31;5.40;;;3.45;;
67819;SDS011;54618;52.018;5.576;2023-02-10T01:23:58;5.00;;;3.58;;
67819;SDS011;54618;52.018;5.576;2023-02-10T01:26:24;6.22;;;3.75;;
67819;SDS011;54618;52.018;5.576;2023-02-10T01:28:49;6.47;;;3.60;;
67819;SDS011;54618;52.018;5.576;2023-02-10T01:31:16;5.15;;;3.30;;
67819;SDS011;54618;52.018;5.576;2023-02-10T01:33:44;5.35;;;3.45;;
67819;SDS011;54618;52.018;5.576;2023-02-10T01:36:12;5.82;;;3.50;;
67819;SDS011;54618;52.018;5.576;2023-02-10T01:38:40;5.03;;;3.40;;
67819;SDS011;54618;52.018;5.576;2023-02-10T01:41:06;5.70;;;3.13;;
67819;SDS011;54618;52.018;5.576;2023-02-10T01:43:51;4.85;;;3.20;;
67819;SDS011;54618;52.018;5.576;2023-02-10T01:46:17;5.72;;;3.08;;
67819;SDS011;54618;52.018;5.576;2023-02-10T01:48:43;5.28;;;3.55;;
67819;SDS011;54618;52.018;5.576;2023-02-10T01:51:09;4.78;;;3.13;;
67819;SDS011;54618;52.018;5.576;2023-02-10T01:53:36;5.63;;;3.22;;
67819;SDS011;54618;52.018;5.576;2023-02-10T01:56:02;4.20;;;3.05;;
67819;SDS011;54618;52.018;5.576;2023-02-10T01:58:29;5.78;;;3.15;;
67819;SDS011;54618;52.018;5.576;2023-02-10T02:00:57;5.50;;;3.60;;
67819;SDS011;54618;52.018;5.576;2023-02-10T02:03:23;7.38;;;3.30;;
67819;SDS011;54618;52.018;5.576;2023-02-10T02:05:49;6.45;;;3.40;;
67819;SDS011;54618;52.018;5.576;2023-02-10T02:08:16;5.97;;;3.28;;
67819;SDS011;54618;52.018;5.576;2023-02-10T02:13:46;4.57;;;3.10;;
67819;SDS011;54618;52.018;5.576;2023-02-10T02:16:31;4.75;;;3.28;;
67819;SDS011;54618;52.018;5.576;2023-02-10T02:24:46;4.68;;;3.30;;
67819;SDS011;54618;52.018;5.576;2023-02-10T02:27:36;4.80;;;3.05;;
67819;SDS011;54618;52.018;5.576;2023-02-10T02:30:33;5.70;;;3.45;;
67819;SDS011;54618;52.018;5.576;2023-02-10T02:35:52;5.45;;;3.33;;
67819;SDS011;54618;52.018;5.576;2023-02-10T02:38:29;5.43;;;3.28;;
67819;SDS011;54618;52.018;5.576;2023-02-10T02:40:55;5.15;;;3.30;;
67819;SDS011;54618;52.018;5.576;2023-02-10T02:43:21;4.72;;;3.20;;
67819;SDS011;54618;52.018;5.576;2023-02-10T02:54:08;6.35;;;4.10;;
67819;SDS011;54618;52.018;5.576;2023-02-10T02:59:38;4.80;;;3.15;;
67819;SDS011;54618;52.018;5.576;2023-02-10T03:02:11;4.68;;;3.13;;
67819;SDS011;54618;52.018;5.576;2023-02-10T03:04:38;5.75;;;3.47;;
67819;SDS011;54618;52.018;5.576;2023-02-10T03:07:05;4.75;;;2.88;;
67819;SDS011;54618;52.018;5.576;2023-02-10T03:09:31;5.22;;;3.03;;
67819;SDS011;54618;52.018;5.576;2023-02-10T03:11:57;4.65;;;2.95;;
67819;SDS011;54618;52.018;5.576;2023-02-10T03:14:23;4.22;;;2.53;;
67819;SDS011;54618;52.018;5.576;2023-02-10T03:16:48;5.32;;;2.70;;
67819;SDS011;54618;52.018;5.576;2023-02-10T03:19:14;4.28;;;2.70;;
67819;SDS011;54618;52.018;5.576;2023-02-10T03:21:40;4.22;;;2.78;;
67819;SDS011;54618;52.018;5.576;2023-02-10T03:24:05;3.95;;;2.42;;
67819;SDS011;54618;52.018;5.576;2023-02-10T03:26:31;4.25;;;2.50;;
67819;SDS011;54618;52.018;5.576;2023-02-10T03:28:56;4.05;;;2.60;;
67819;SDS011;54618;52.018;5.576;2023-02-10T03:31:22;3.85;;;2.50;;
67819;SDS011;54618;52.018;5.576;2023-02-10T03:33:48;5.05;;;2.70;;
67819;SDS011;54618;52.018;5.576;2023-02-10T03:36:14;3.65;;;2.40;;
67819;SDS011;54618;52.018;5.576;2023-02-10T03:38:40;3.20;;;2.25;;
67819;SDS011;54618;52.018;5.576;2023-02-10T03:41:05;4.97;;;2.60;;
67819;SDS011;54618;52.018;5.576;2023-02-10T03:43:31;3.70;;;2.40;;
67819;SDS011;54618;52.018;5.576;2023-02-10T03:46:00;3.92;;;2.30;;
67819;SDS011;54618;52.018;5.576;2023-02-10T03:48:26;3.88;;;2.67;;
67819;SDS011;54618;52.018;5.576;2023-02-10T03:50:56;3.60;;;2.45;;
67819;SDS011;54618;52.018;5.576;2023-02-10T03:53:24;3.42;;;2.20;;
67819;SDS011;54618;52.018;5.576;2023-02-10T03:55:50;4.07;;;2.50;;
67819;SDS011;54618;52.018;5.576;2023-02-10T03:58:16;3.95;;;2.30;;
67819;SDS011;54618;52.018;5.576;2023-02-10T04:00:41;3.60;;;2.40;;
67819;SDS011;54618;52.018;5.576;2023-02-10T04:03:07;3.40;;;2.30;;
67819;SDS011;54618;52.018;5.576;2023-02-10T04:05:33;3.20;;;2.15;;
67819;SDS011;54618;52.018;5.576;2023-02-10T04:07:58;3.55;;;2.40;;
67819;SDS011;54618;52.018;5.576;2023-02-10T04:10:24;4.00;;;2.88;;
67819;SDS011;54618;52.018;5.576;2023-02-10T04:12:50;3.80;;;2.42;;
67819;SDS011;54618;52.018;5.576;2023-02-10T04:15:16;4.63;;;2.60;;
67819;SDS011;54618;52.018;5.576;2023-02-10T04:17:41;4.95;;;2.72;;
67819;SDS011;54618;52.018;5.576;2023-02-10T04:20:07;3.78;;;2.42;;
67819;SDS011;54618;52.018;5.576;2023-02-10T04:22:33;3.80;;;2.33;;
67819;SDS011;54618;52.018;5.576;2023-02-10T04:24:58;3.85;;;2.33;;
67819;SDS011;54618;52.018;5.576;2023-02-10T04:27:24;4.93;;;2.53;;
67819;SDS011;54618;52.018;5.576;2023-02-10T04:29:49;4.53;;;2.50;;
67819;SDS011;54618;52.018;5.576;2023-02-10T04:32:15;3.70;;;2.42;;
67819;SDS011;54618;52.018;5.576;2023-02-10T04:34:40;4.53;;;2.45;;
67819;SDS011;54618;52.018;5.576;2023-02-10T04:37:06;3.67;;;2.40;;
67819;SDS011;54618;52.018;5.576;2023-02-10T04:39:31;3.95;;;2.30;;
67819;SDS011;54618;52.018;5.576;2023-02-10T04:41:57;3.80;;;2.40;;
67819;SDS011;54618;52.018;5.576;2023-02-10T04:44:22;3.72;;;2.40;;
67819;SDS011;54618;52.018;5.576;2023-02-10T04:46:48;3.88;;;2.63;;
67819;SDS011;54618;52.018;5.576;2023-02-10T04:49:15;3.60;;;2.60;;
67819;SDS011;54618;52.018;5.576;2023-02-10T04:51:41;2.95;;;1.92;;
67819;SDS011;54618;52.018;5.576;2023-02-10T04:54:07;3.40;;;2.20;;
67819;SDS011;54618;52.018;5.576;2023-02-10T04:56:32;4.68;;;2.50;;
67819;SDS011;54618;52.018;5.576;2023-02-10T04:58:58;3.05;;;2.55;;
67819;SDS011;54618;52.018;5.576;2023-02-10T05:01:23;3.90;;;2.33;;
67819;SDS011;54618;52.018;5.576;2023-02-10T05:03:49;3.90;;;2.40;;
67819;SDS011;54618;52.018;5.576;2023-02-10T05:06:14;4.20;;;2.40;;
67819;SDS011;54618;52.018;5.576;2023-02-10T05:08:41;4.05;;;2.40;;
67819;SDS011;54618;52.018;5.576;2023-02-10T05:11:07;4.10;;;2.58;;
67819;SDS011;54618;52.018;5.576;2023-02-10T05:13:34;3.83;;;2.55;;
67819;SDS011;54618;52.018;5.576;2023-02-10T05:16:00;3.50;;;2.25;;
67819;SDS011;54618;52.018;5.576;2023-02-10T05:18:27;3.80;;;2.33;;
67819;SDS011;54618;52.018;5.576;2023-02-10T05:20:57;3.65;;;2.47;;
67819;SDS011;54618;52.018;5.576;2023-02-10T05:23:23;3.40;;;2.40;;
67819;SDS011;54618;52.018;5.576;2023-02-10T05:25:48;3.47;;;2.28;;
67819;SDS011;54618;52.018;5.576;2023-02-10T05:28:14;4.57;;;2.50;;
67819;SDS011;54618;52.018;5.576;2023-02-10T05:30:40;3.95;;;2.60;;
67819;SDS011;54618;52.018;5.576;2023-02-10T05:33:06;3.90;;;2.17;;
67819;SDS011;54618;52.018;5.576;2023-02-10T05:35:31;4.18;;;2.33;;
67819;SDS011;54618;52.018;5.576;2023-02-10T05:37:57;3.83;;;2.17;;
67819;SDS011;54618;52.018;5.576;2023-02-10T05:40:22;3.92;;;2.50;;
67819;SDS011;54618;52.018;5.576;2023-02-10T05:42:49;3.95;;;2.60;;
67819;SDS011;54618;52.018;5.576;2023-02-10T05:45:15;4.03;;;2.67;;
67819;SDS011;54618;52.018;5.576;2023-02-10T05:47:41;4.03;;;2.40;;
67819;SDS011;54618;52.018;5.576;2023-02-10T05:50:06;3.92;;;2.40;;
67819;SDS011;54618;52.018;5.576;2023-02-10T05:52:32;3.72;;;2.47;;
67819;SDS011;54618;52.018;5.576;2023-02-10T05:54:58;3.38;;;2.63;;
67819;SDS011;54618;52.018;5.576;2023-02-10T05:57:24;4.30;;;2.30;;
67819;SDS011;54618;52.018;5.576;2023-02-10T05:59:49;4.97;;;2.50;;
67819;SDS011;54618;52.018;5.576;2023-02-10T06:02:15;3.45;;;2.25;;
67819;SDS011;54618;52.018;5.576;2023-02-10T06:04:41;3.78;;;2.05;;
67819;SDS011;54618;52.018;5.576;2023-02-10T06:07:06;3.45;;;2.15;;
67819;SDS011;54618;52.018;5.576;2023-02-10T06:09:32;3.65;;;2.33;;
67819;SDS011;54618;52.018;5.576;2023-02-10T06:11:57;5.35;;;2.40;;
67819;SDS011;54618;52.018;5.576;2023-02-10T06:14:23;4.30;;;2.60;;
67819;SDS011;54618;52.018;5.576;2023-02-10T06:16:48;4.15;;;2.28;;
67819;SDS011;54618;52.018;5.576;2023-02-10T06:19:14;3.17;;;2.15;;
67819;SDS011;54618;52.018;5.576;2023-02-10T06:21:40;3.22;;;2.08;;
67819;SDS011;54618;52.018;5.576;2023-02-10T06:24:06;3.55;;;2.25;;
67819;SDS011;54618;52.018;5.576;2023-02-10T06:26:32;4.32;;;2.47;;
67819;SDS011;54618;52.018;5.576;2023-02-10T06:28:57;3.58;;;2.17;;
67819;SDS011;54618;52.018;5.576;2023-02-10T06:31:23;4.05;;;2.58;;
67819;SDS011;54618;52.018;5.576;2023-02-10T06:33:50;4.20;;;2.40;;
67819;SDS011;54618;52.018;5.576;2023-02-10T06:36:15;3.95;;;2.38;;
67819;SDS011;54618;52.018;5.576;2023-02-10T06:38:41;4.07;;;2.45;;
67819;SDS011;54618;52.018;5.576;2023-02-10T06:41:07;3.08;;;1.92;;
67819;SDS011;54618;52.018;5.576;2023-02-10T06:43:32;3.35;;;2.10;;
67819;SDS011;54618;52.018;5.576;2023-02-10T06:45:58;4.13;;;2.30;;
67819;SDS011;54618;52.018;5.576;2023-02-10T06:48:24;2.88;;;2.05;;
67819;SDS011;54618;52.018;5.576;2023-02-10T06:50:49;3.13;;;2.08;;
67819;SDS011;54618;52.018;5.576;2023-02-10T06:53:15;2.90;;;2.00;;
67819;SDS011;54618;52.018;5.576;2023-02-10T06:55:41;3.25;;;2.00;;
67819;SDS011;54618;52.018;5.576;2023-02-10T06:58:06;3.15;;;2.10;;
67819;SDS011;54618;52.018;5.576;2023-02-10T07:00:32;3.67;;;2.20;;
67819;SDS011;54618;52.018;5.576;2023-02-10T07:02:58;3.13;;;2.03;;
67819;SDS011;54618;52.018;5.576;2023-02-10T07:05:24;3.50;;;2.08;;
67819;SDS011;54618;52.018;5.576;2023-02-10T07:07:50;3.90;;;2.72;;
67819;SDS011;54618;52.018;5.576;2023-02-10T07:10:16;4.72;;;2.70;;
67819;SDS011;54618;52.018;5.576;2023-02-10T07:12:43;3.55;;;2.20;;
67819;SDS011;54618;52.018;5.576;2023-02-10T07:15:09;4.00;;;2.60;;
67819;SDS011;54618;52.018;5.576;2023-02-10T07:17:34;3.33;;;2.40;;
67819;SDS011;54618;52.018;5.576;2023-02-10T07:20:01;3.80;;;2.40;;
67819;SDS011;54618;52.018;5.576;2023-02-10T07:22:27;3.17;;;2.17;;
67819;SDS011;54618;52.018;5.576;2023-02-10T07:24:53;4.47;;;1.90;;
67819;SDS011;54618;52.018;5.576;2023-02-10T07:27:19;3.22;;;2.17;;
67819;SDS011;54618;52.018;5.576;2023-02-10T07:29:44;3.55;;;2.10;;
67819;SDS011;54618;52.018;5.576;2023-02-10T07:32:11;3.30;;;2.13;;
67819;SDS011;54618;52.018;5.576;2023-02-10T07:34:37;3.50;;;2.15;;
67819;SDS011;54618;52.018;5.576;2023-02-10T07:37:05;4.10;;;2.28;;
67819;SDS011;54618;52.018;5.576;2023-02-10T07:39:31;3.88;;;2.10;;
67819;SDS011;54618;52.018;5.576;2023-02-10T07:41:56;3.67;;;2.10;;
67819;SDS011;54618;52.018;5.576;2023-02-10T07:44:22;3.30;;;2.30;;
67819;SDS011;54618;52.018;5.576;2023-02-10T07:46:48;3.00;;;2.08;;
67819;SDS011;54618;52.018;5.576;2023-02-10T07:49:16;3.15;;;1.98;;
67819;SDS011;54618;52.018;5.576;2023-02-10T07:51:41;3.72;;;2.33;;
67819;SDS011;54618;52.018;5.576;2023-02-10T07:54:07;2.67;;;2.00;;
67819;SDS011;54618;52.018;5.576;2023-02-10T07:56:33;4.40;;;2.28;;
67819;SDS011;54618;52.018;5.576;2023-02-10T07:58:59;4.70;;;2.53;;
67819;SDS011;54618;52.018;5.576;2023-02-10T08:01:24;3.75;;;2.40;;
67819;SDS011;54618;52.018;5.576;2023-02-10T08:03:50;2.83;;;2.20;;
67819;SDS011;54618;52.018;5.576;2023-02-10T08:06:22;4.97;;;2.35;;
67819;SDS011;54618;52.018;5.576;2023-02-10T08:08:48;4.63;;;2.25;;
67819;SDS011;54618;52.018;5.576;2023-02-10T08:11:14;4.25;;;2.70;;
67819;SDS011;54618;52.018;5.576;2023-02-10T08:13:41;3.70;;;2.38;;
67819;SDS011;54618;52.018;5.576;2023-02-10T08:16:06;3.72;;;2.20;;
67819;SDS011;54618;52.018;5.576;2023-02-10T08:18:33;3.95;;;2.38;;
67819;SDS011;54618;52.018;5.576;2023-02-10T08:20:59;4.05;;;2.15;;
67819;SDS011;54618;52.018;5.576;2023-02-10T08:23:25;4.18;;;2.60;;
67819;SDS011;54618;52.018;5.576;2023-02-10T08:25:51;4.97;;;2.40;;
67819;SDS011;54618;52.018;5.576;2023-02-10T08:28:17;3.28;;;2.20;;
67819;SDS011;54618;52.018;5.576;2023-02-10T08:30:43;3.95;;;2.60;;
67819;SDS011;54618;52.018;5.576;2023-02-10T08:33:09;3.78;;;2.28;;
67819;SDS011;54618;52.018;5.576;2023-02-10T08:35:38;3.85;;;2.60;;
67819;SDS011;54618;52.018;5.576;2023-02-10T08:38:05;4.78;;;2.72;;
67819;SDS011;54618;52.018;5.576;2023-02-10T08:40:31;5.45;;;2.80;;
67819;SDS011;54618;52.018;5.576;2023-02-10T08:42:58;3.65;;;2.55;;
67819;SDS011;54618;52.018;5.576;2023-02-10T08:45:23;4.63;;;2.90;;
67819;SDS011;54618;52.018;5.576;2023-02-10T08:47:49;6.22;;;3.72;;
67819;SDS011;54618;52.018;5.576;2023-02-10T08:50:14;4.75;;;2.83;;
67819;SDS011;54618;52.018;5.576;2023-02-10T08:52:41;4.85;;;2.75;;
67819;SDS011;54618;52.018;5.576;2023-02-10T08:55:06;5.03;;;2.80;;
67819;SDS011;54618;52.018;5.576;2023-02-10T08:57:32;4.57;;;2.58;;
67819;SDS011;54618;52.018;5.576;2023-02-10T08:59:59;5.63;;;2.78;;
67819;SDS011;54618;52.018;5.576;2023-02-10T09:02:24;5.63;;;2.97;;
67819;SDS011;54618;52.018;5.576;2023-02-10T09:04:50;4.28;;;2.58;;
67819;SDS011;54618;52.018;5.576;2023-02-10T09:07:16;5.38;;;3.03;;
67819;SDS011;54618;52.018;5.576;2023-02-10T09:09:41;3.90;;;2.50;;
67819;SDS011;54618;52.018;5.576;2023-02-10T09:12:08;4.47;;;2.90;;
67819;SDS011;54618;52.018;5.576;2023-02-10T09:14:37;4.65;;;2.72;;
67819;SDS011;54618;52.018;5.576;2023-02-10T09:17:03;4.82;;;2.90;;
67819;SDS011;54618;52.018;5.576;2023-02-10T09:19:29;4.20;;;2.58;;
67819;SDS011;54618;52.018;5.576;2023-02-10T09:21:54;5.32;;;2.90;;
67819;SDS011;54618;52.018;5.576;2023-02-10T09:24:21;4.50;;;2.83;;
67819;SDS011;54618;52.018;5.576;2023-02-10T09:26:46;5.03;;;2.80;;
67819;SDS011;54618;52.018;5.576;2023-02-10T09:29:12;4.00;;;2.67;;
67819;SDS011;54618;52.018;5.576;2023-02-10T09:31:38;4.15;;;2.97;;
67819;SDS011;54618;52.018;5.576;2023-02-10T09:34:04;5.38;;;3.15;;
67819;SDS011;54618;52.018;5.576;2023-02-10T09:36:29;5.28;;;3.05;;
67819;SDS011;54618;52.018;5.576;2023-02-10T09:38:55;4.70;;;3.00;;
67819;SDS011;54618;52.018;5.576;2023-02-10T09:44:10;6.78;;;3.30;;
67819;SDS011;54618;52.018;5.576;2023-02-10T09:52:12;5.47;;;3.33;;
67819;SDS011;54618;52.018;5.576;2023-02-10T09:54:42;5.03;;;3.22;;
67819;SDS011;54618;52.018;5.576;2023-02-10T09:57:13;5.75;;;3.10;;
67819;SDS011;54618;52.018;5.576;2023-02-10T09:59:45;4.88;;;3.28;;
67819;SDS011;54618;52.018;5.576;2023-02-10T10:02:16;11.15;;;3.38;;
67819;SDS011;54618;52.018;5.576;2023-02-10T10:04:51;7.28;;;3.47;;
67819;SDS011;54618;52.018;5.576;2023-02-10T10:09:46;5.70;;;3.45;;
67819;SDS011;54618;52.018;5.576;2023-02-10T10:12:21;5.43;;;3.50;;
67819;SDS011;54618;52.018;5.576;2023-02-10T10:14:49;7.60;;;3.60;;
67819;SDS011;54618;52.018;5.576;2023-02-10T10:17:26;5.47;;;3.30;;
67819;SDS011;54618;52.018;5.576;2023-02-10T10:28:35;7.70;;;3.20;;
67819;SDS011;54618;52.018;5.576;2023-02-10T10:31:14;4.80;;;3.30;;
67819;SDS011;54618;52.018;5.576;2023-02-10T10:36:13;4.80;;;3.35;;
67819;SDS011;54618;52.018;5.576;2023-02-10T10:38:51;4.95;;;3.20;;
67819;SDS011;54618;52.018;5.576;2023-02-10T10:41:25;5.28;;;3.08;;
67819;SDS011;54618;52.018;5.576;2023-02-10T10:43:55;5.32;;;3.22;;
67819;SDS011;54618;52.018;5.576;2023-02-10T10:46:43;5.63;;;3.30;;
67819;SDS011;54618;52.018;5.576;2023-02-10T10:49:13;5.45;;;3.28;;
67819;SDS011;54618;52.018;5.576;2023-02-10T10:51:38;6.70;;;3.58;;
67819;SDS011;54618;52.018;5.576;2023-02-10T10:54:04;5.60;;;3.35;;
67819;SDS011;54618;52.018;5.576;2023-02-10T10:59:45;5.50;;;3.22;;
67819;SDS011;54618;52.018;5.576;2023-02-10T11:02:16;4.80;;;3.10;;
67819;SDS011;54618;52.018;5.576;2023-02-10T11:04:43;6.75;;;3.83;;
67819;SDS011;54618;52.018;5.576;2023-02-10T11:07:11;4.63;;;3.17;;
67819;SDS011;54618;52.018;5.576;2023-02-10T11:09:48;5.47;;;3.58;;
67819;SDS011;54618;52.018;5.576;2023-02-10T11:14:42;4.55;;;2.97;;
67819;SDS011;54618;52.018;5.576;2023-02-10T11:19:53;6.78;;;3.38;;
67819;SDS011;54618;52.018;5.576;2023-02-10T11:22:54;7.57;;;3.40;;
67819;SDS011;54618;52.018;5.576;2023-02-10T11:27:56;4.40;;;2.97;;
67819;SDS011;54618;52.018;5.576;2023-02-10T11:32:54;6.15;;;3.13;;
67819;SDS011;54618;52.018;5.576;2023-02-10T11:35:20;8.07;;;3.70;;
67819;SDS011;54618;52.018;5.576;2023-02-10T11:37:51;8.65;;;3.50;;
67819;SDS011;54618;52.018;5.576;2023-02-10T11:40:23;7.43;;;3.22;;
67819;SDS011;54618;52.018;5.576;2023-02-10T11:42:52;5.38;;;3.38;;
67819;SDS011;54618;52.018;5.576;2023-02-10T11:45:25;6.65;;;3.33;;
67819;SDS011;54618;52.018;5.576;2023-02-10T11:48:15;5.90;;;3.17;;
67819;SDS011;54618;52.018;5.576;2023-02-10T11:50:42;5.75;;;3.50;;
67819;SDS011;54618;52.018;5.576;2023-02-10T11:53:27;5.60;;;3.47;;
67819;SDS011;54618;52.018;5.576;2023-02-10T11:56:00;6.07;;;3.45;;
67819;SDS011;54618;52.018;5.576;2023-02-10T11:58:40;7.03;;;3.70;;
67819;SDS011;54618;52.018;5.576;2023-02-10T12:01:38;8.00;;;3.60;;
67819;SDS011;54618;52.018;5.576;2023-02-10T12:12:38;6.30;;;3.45;;
67819;SDS011;54618;52.018;5.576;2023-02-10T12:18:04;7.63;;;3.50;;
67819;SDS011;54618;52.018;5.576;2023-02-10T12:21:46;8.10;;;3.75;;
67819;SDS011;54618;52.018;5.576;2023-02-10T12:24:03;8.10;;;3.78;;
67819;SDS011;54618;52.018;5.576;2023-02-10T12:26:34;10.77;;;3.55;;
67819;SDS011;54618;52.018;5.576;2023-02-10T12:29:18;7.22;;;3.58;;
67819;SDS011;54618;52.018;5.576;2023-02-10T12:34:32;6.60;;;3.42;;
67819;SDS011;54618;52.018;5.576;2023-02-10T12:37:35;5.97;;;3.05;;
67819;SDS011;54618;52.018;5.576;2023-02-10T12:40:21;8.07;;;3.35;;
67819;SDS011;54618;52.018;5.576;2023-02-10T12:43:04;6.05;;;3.22;;
67819;SDS011;54618;52.018;5.576;2023-02-10T12:45:54;7.95;;;2.95;;
67819;SDS011;54618;52.018;5.576;2023-02-10T12:51:04;7.47;;;3.63;;
67819;SDS011;54618;52.018;5.576;2023-02-10T12:53:35;5.95;;;3.17;;
67819;SDS011;54618;52.018;5.576;2023-02-10T12:58:50;7.05;;;3.03;;
67819;SDS011;54618;52.018;5.576;2023-02-10T13:01:30;5.72;;;3.33;;
67819;SDS011;54618;52.018;5.576;2023-02-10T13:04:12;4.97;;;3.20;;
67819;SDS011;54618;52.018;5.576;2023-02-10T13:06:47;6.20;;;3.00;;
67819;SDS011;54618;52.018;5.576;2023-02-10T13:12:12;6.32;;;2.90;;
67819;SDS011;54618;52.018;5.576;2023-02-10T13:14:42;5.40;;;3.08;;
67819;SDS011;54618;52.018;5.576;2023-02-10T13:17:10;6.13;;;3.03;;
67819;SDS011;54618;52.018;5.576;2023-02-10T13:22:32;6.93;;;3.47;;
67819;SDS011;54618;52.018;5.576;2023-02-10T13:25:12;7.45;;;3.08;;
67819;SDS011;54618;52.018;5.576;2023-02-10T13:33:38;5.05;;;3.03;;
67819;SDS011;54618;52.018;5.576;2023-02-10T13:36:19;5.97;;;3.30;;
67819;SDS011;54618;52.018;5.576;2023-02-10T13:38:56;5.50;;;2.88;;
67819;SDS011;54618;52.018;5.576;2023-02-10T13:41:31;6.93;;;3.25;;
67819;SDS011;54618;52.018;5.576;2023-02-10T13:46:53;5.18;;;3.20;;
67819;SDS011;54618;52.018;5.576;2023-02-10T13:49:22;6.05;;;3.30;;
67819;SDS011;54618;52.018;5.576;2023-02-10T13:51:48;6.03;;;2.97;;
67819;SDS011;54618;52.018;5.576;2023-02-10T13:54:23;5.22;;;2.85;;
67819;SDS011;54618;52.018;5.576;2023-02-10T13:56:54;6.00;;;3.10;;
67819;SDS011;54618;52.018;5.576;2023-02-10T14:02:00;5.65;;;3.20;;
67819;SDS011;54618;52.018;5.576;2023-02-10T14:04:39;6.82;;;3.40;;
67819;SDS011;54618;52.018;5.576;2023-02-10T14:10:06;7.32;;;3.30;;
67819;SDS011;54618;52.018;5.576;2023-02-10T14:12:32;5.00;;;2.77;;
67819;SDS011;54618;52.018;5.576;2023-02-10T14:17:52;4.88;;;3.10;;
67819;SDS011;54618;52.018;5.576;2023-02-10T14:20:34;6.30;;;3.33;;
67819;SDS011;54618;52.018;5.576;2023-02-10T14:23:02;6.57;;;3.38;;
67819;SDS011;54618;52.018;5.576;2023-02-10T14:25:32;5.35;;;3.45;;
67819;SDS011;54618;52.018;5.576;2023-02-10T14:28:01;5.68;;;3.00;;
67819;SDS011;54618;52.018;5.576;2023-02-10T14:30:34;4.85;;;3.10;;
67819;SDS011;54618;52.018;5.576;2023-02-10T14:33:18;6.38;;;3.45;;
67819;SDS011;54618;52.018;5.576;2023-02-10T14:35:50;5.57;;;3.38;;
67819;SDS011;54618;52.018;5.576;2023-02-10T14:38:22;6.07;;;3.63;;
67819;SDS011;54618;52.018;5.576;2023-02-10T14:40:53;6.85;;;3.63;;
67819;SDS011;54618;52.018;5.576;2023-02-10T14:43:21;4.88;;;3.20;;
67819;SDS011;54618;52.018;5.576;2023-02-10T14:45:58;6.93;;;3.50;;
67819;SDS011;54618;52.018;5.576;2023-02-10T14:48:24;6.00;;;3.60;;
67819;SDS011;54618;52.018;5.576;2023-02-10T14:51:17;5.30;;;3.30;;
67819;SDS011;54618;52.018;5.576;2023-02-10T14:53:43;6.65;;;3.65;;
67819;SDS011;54618;52.018;5.576;2023-02-10T14:56:16;7.32;;;3.95;;
67819;SDS011;54618;52.018;5.576;2023-02-10T14:58:47;6.38;;;3.70;;
67819;SDS011;54618;52.018;5.576;2023-02-10T15:01:26;6.10;;;3.50;;
67819;SDS011;54618;52.018;5.576;2023-02-10T15:03:57;7.47;;;3.97;;
67819;SDS011;54618;52.018;5.576;2023-02-10T15:06:23;6.80;;;3.53;;
67819;SDS011;54618;52.018;5.576;2023-02-10T15:08:52;7.05;;;3.40;;
67819;SDS011;54618;52.018;5.576;2023-02-10T15:11:29;5.90;;;3.38;;
67819;SDS011;54618;52.018;5.576;2023-02-10T15:14:22;6.75;;;3.80;;
67819;SDS011;54618;52.018;5.576;2023-02-10T15:16:50;6.50;;;3.45;;
67819;SDS011;54618;52.018;5.576;2023-02-10T15:19:17;6.18;;;4.10;;
67819;SDS011;54618;52.018;5.576;2023-02-10T15:21:44;6.22;;;3.42;;
67819;SDS011;54618;52.018;5.576;2023-02-10T15:24:44;7.13;;;3.97;;
67819;SDS011;54618;52.018;5.576;2023-02-10T15:27:16;5.32;;;3.70;;
67819;SDS011;54618;52.018;5.576;2023-02-10T15:29:46;6.60;;;3.80;;
67819;SDS011;54618;52.018;5.576;2023-02-10T15:32:16;8.00;;;3.88;;
67819;SDS011;54618;52.018;5.576;2023-02-10T15:34:44;7.03;;;3.92;;
67819;SDS011;54618;52.018;5.576;2023-02-10T15:37:17;6.60;;;3.72;;
67819;SDS011;54618;52.018;5.576;2023-02-10T15:39:55;7.18;;;3.88;;
67819;SDS011;54618;52.018;5.576;2023-02-10T15:42:23;6.55;;;3.90;;
67819;SDS011;54618;52.018;5.576;2023-02-10T15:47:44;8.13;;;3.92;;
67819;SDS011;54618;52.018;5.576;2023-02-10T15:50:12;6.20;;;3.75;;
67819;SDS011;54618;52.018;5.576;2023-02-10T15:52:40;5.80;;;3.40;;
67819;SDS011;54618;52.018;5.576;2023-02-10T15:55:15;7.53;;;4.15;;
67819;SDS011;54618;52.018;5.576;2023-02-10T15:57:47;8.68;;;4.00;;
67819;SDS011;54618;52.018;5.576;2023-02-10T16:00:15;8.15;;;3.95;;
67819;SDS011;54618;52.018;5.576;2023-02-10T16:02:41;7.38;;;3.88;;
67819;SDS011;54618;52.018;5.576;2023-02-10T16:05:07;7.20;;;4.10;;
67819;SDS011;54618;52.018;5.576;2023-02-10T16:07:32;7.43;;;4.05;;
67819;SDS011;54618;52.018;5.576;2023-02-10T16:09:58;7.57;;;3.78;;
67819;SDS011;54618;52.018;5.576;2023-02-10T16:12:24;8.35;;;4.22;;
67819;SDS011;54618;52.018;5.576;2023-02-10T16:14:49;7.25;;;3.83;;
67819;SDS011;54618;52.018;5.576;2023-02-10T16:17:17;10.45;;;3.85;;
67819;SDS011;54618;52.018;5.576;2023-02-10T16:19:46;7.85;;;3.80;;
67819;SDS011;54618;52.018;5.576;2023-02-10T16:22:13;6.28;;;3.75;;
67819;SDS011;54618;52.018;5.576;2023-02-10T16:24:38;9.68;;;4.40;;
67819;SDS011;54618;52.018;5.576;2023-02-10T16:27:04;7.63;;;3.90;;
67819;SDS011;54618;52.018;5.576;2023-02-10T16:29:30;7.47;;;4.15;;
67819;SDS011;54618;52.018;5.576;2023-02-10T16:31:56;7.55;;;4.15;;
67819;SDS011;54618;52.018;5.576;2023-02-10T16:34:22;9.85;;;4.35;;
67819;SDS011;54618;52.018;5.576;2023-02-10T16:36:48;9.82;;;4.55;;
67819;SDS011;54618;52.018;5.576;2023-02-10T16:39:16;7.22;;;4.18;;
67819;SDS011;54618;52.018;5.576;2023-02-10T16:41:44;6.72;;;3.90;;